createdAt,value
2017-08-18T00:00:48.900Z,7.80
2017-08-18T00:03:16.479Z,7.72
2017-08-18T00:05:44.063Z,8.30
2017-08-18T00:08:11.694Z,7.85
2017-08-18T00:10:39.263Z,8.05
2017-08-18T00:13:06.894Z,7.57
2017-08-18T00:15:34.498Z,8.45
2017-08-18T00:18:02.090Z,8.15
2017-08-18T00:20:29.721Z,8.57
2017-08-18T00:22:57.319Z,9.07
2017-08-18T00:25:24.905Z,9.20
2017-08-18T00:27:52.713Z,8.50
2017-08-18T00:30:20.235Z,9.13
2017-08-18T00:32:47.801Z,10.57
2017-08-18T00:35:15.396Z,10.60
2017-08-18T00:37:42.977Z,9.55
2017-08-18T00:40:10.604Z,10.93
2017-08-18T00:42:38.203Z,9.27
2017-08-18T00:45:05.759Z,9.70
2017-08-18T00:47:33.327Z,9.32
2017-08-18T00:50:00.938Z,11.00
2017-08-18T00:52:28.522Z,10.00
2017-08-18T00:54:56.136Z,10.55
2017-08-18T00:57:23.750Z,10.02
2017-08-18T00:59:51.320Z,11.02
2017-08-18T01:02:18.896Z,10.98
2017-08-18T01:04:46.662Z,11.07
2017-08-18T01:07:14.253Z,12.35
2017-08-18T01:09:41.822Z,15.65
2017-08-18T01:12:09.394Z,12.48
2017-08-18T01:14:36.969Z,11.27
2017-08-18T01:17:04.540Z,11.05
2017-08-18T01:19:32.264Z,9.90
2017-08-18T01:21:59.789Z,12.35
2017-08-18T01:24:27.404Z,11.95
2017-08-18T01:26:55.024Z,10.80
2017-08-18T01:29:22.610Z,11.00
2017-08-18T01:31:50.211Z,11.15
2017-08-18T01:34:18.011Z,11.82
2017-08-18T01:36:45.597Z,11.68
2017-08-18T01:39:13.155Z,11.12
2017-08-18T01:41:40.829Z,10.90
2017-08-18T01:44:08.372Z,10.40
2017-08-18T01:46:35.940Z,12.43
2017-08-18T01:49:03.591Z,11.93
2017-08-18T01:51:31.102Z,11.10
2017-08-18T01:53:58.635Z,11.65
2017-08-18T01:56:26.240Z,12.02
2017-08-18T01:58:53.838Z,11.30
2017-08-18T02:01:21.468Z,10.77
2017-08-18T02:03:49.075Z,11.32
2017-08-18T02:06:16.637Z,12.85
2017-08-18T02:08:44.229Z,12.18
2017-08-18T02:11:11.997Z,11.05
2017-08-18T02:13:39.537Z,11.80
2017-08-18T02:16:07.115Z,12.30
2017-08-18T02:18:34.887Z,11.95
2017-08-18T02:21:02.461Z,11.68
2017-08-18T02:23:30.056Z,12.43
2017-08-18T02:25:57.861Z,12.80
2017-08-18T02:28:25.441Z,12.10
2017-08-18T02:30:53.013Z,13.07
2017-08-18T02:33:20.606Z,12.18
2017-08-18T02:35:48.170Z,13.15
2017-08-18T02:38:15.740Z,12.65
2017-08-18T02:40:43.521Z,12.90
2017-08-18T02:43:11.102Z,12.90
2017-08-18T02:45:38.644Z,13.62
2017-08-18T02:48:06.296Z,13.32
2017-08-18T02:50:33.908Z,13.45
2017-08-18T02:53:01.488Z,13.80
2017-08-18T02:55:29.108Z,13.62
2017-08-18T02:57:56.670Z,13.65
2017-08-18T03:00:24.214Z,14.02
2017-08-18T03:02:51.830Z,13.32
2017-08-18T03:05:19.360Z,13.13
2017-08-18T03:07:46.953Z,13.75
2017-08-18T03:10:14.548Z,13.10
2017-08-18T03:12:42.118Z,13.90
2017-08-18T03:15:09.712Z,14.73
2017-08-18T03:17:37.371Z,14.35
2017-08-18T03:20:04.983Z,14.95
2017-08-18T03:22:32.599Z,14.40
2017-08-18T03:25:00.381Z,12.95
2017-08-18T03:27:27.914Z,15.52
2017-08-18T03:29:55.508Z,14.98
2017-08-18T03:32:23.186Z,14.55
2017-08-18T03:34:50.755Z,15.10
2017-08-18T03:37:18.364Z,13.73
2017-08-18T03:39:45.960Z,14.85
2017-08-18T03:42:13.502Z,14.25
2017-08-18T03:44:41.023Z,15.77
2017-08-18T03:47:08.702Z,16.52
2017-08-18T03:49:36.281Z,14.68
2017-08-18T03:52:03.847Z,15.10
2017-08-18T03:54:31.516Z,16.55
2017-08-18T03:56:59.092Z,15.07
2017-08-18T03:59:27.409Z,15.25
2017-08-18T04:01:55.172Z,15.68
2017-08-18T04:04:22.809Z,15.18
2017-08-18T04:06:50.396Z,17.55
2017-08-18T04:09:18.039Z,18.05
2017-08-18T04:11:45.612Z,19.60
2017-08-18T04:14:13.504Z,14.25
2017-08-18T04:16:41.262Z,14.00
2017-08-18T04:19:08.840Z,14.98
2017-08-18T04:21:36.425Z,15.82
2017-08-18T04:24:04.045Z,15.20
2017-08-18T04:26:31.653Z,15.23
2017-08-18T04:28:59.264Z,13.75
2017-08-18T04:31:26.870Z,14.38
2017-08-18T04:33:54.430Z,14.95
2017-08-18T04:36:21.975Z,14.35
2017-08-18T04:38:49.604Z,15.05
2017-08-18T04:41:17.180Z,15.65
2017-08-18T04:43:44.769Z,13.80
2017-08-18T04:46:12.436Z,15.60
2017-08-18T04:48:40.048Z,14.43
2017-08-18T04:51:07.680Z,13.15
2017-08-18T04:53:35.272Z,14.60
2017-08-18T04:56:02.845Z,15.38
2017-08-18T04:58:30.376Z,14.75
2017-08-18T05:00:58.173Z,13.40
2017-08-18T05:03:25.727Z,13.77
2017-08-18T05:05:53.282Z,13.30
2017-08-18T05:08:20.969Z,13.05
2017-08-18T05:10:48.558Z,12.50
2017-08-18T05:13:16.121Z,12.68
2017-08-18T05:15:43.736Z,12.80
2017-08-18T05:18:11.284Z,12.60
2017-08-18T05:20:38.768Z,10.83
2017-08-18T05:23:06.366Z,11.50
2017-08-18T05:25:33.906Z,18.07
2017-08-18T05:28:01.461Z,19.47
2017-08-18T05:30:29.051Z,13.73
2017-08-18T05:32:56.615Z,13.80
2017-08-18T05:35:24.153Z,12.47
2017-08-18T05:37:51.903Z,13.93
2017-08-18T05:40:20.227Z,12.93
2017-08-18T05:42:47.787Z,13.70
2017-08-18T05:45:15.411Z,12.70
2017-08-18T05:47:43.319Z,11.90
2017-08-18T05:50:10.867Z,11.13
2017-08-18T05:52:38.428Z,10.83
2017-08-18T05:55:06.087Z,11.93
2017-08-18T05:57:33.677Z,11.00
2017-08-18T06:00:01.292Z,10.53
2017-08-18T06:02:28.812Z,9.77
2017-08-18T06:04:56.332Z,10.13
2017-08-18T06:07:23.976Z,9.73
2017-08-18T06:09:51.571Z,9.53
2017-08-18T06:12:19.109Z,9.20
2017-08-18T06:14:46.690Z,8.40
2017-08-18T06:17:14.253Z,8.50
2017-08-18T06:19:41.811Z,6.93
2017-08-18T06:22:09.385Z,7.83
2017-08-18T06:24:36.919Z,7.20
2017-08-18T06:27:05.038Z,7.37
2017-08-18T06:29:32.595Z,6.83
2017-08-18T06:32:00.129Z,7.07
2017-08-18T06:34:27.655Z,7.53
2017-08-18T06:36:55.214Z,7.30
2017-08-18T06:39:23.762Z,7.10
2017-08-18T06:41:51.339Z,7.77
2017-08-18T06:44:19.071Z,7.57
2017-08-18T06:46:46.600Z,7.17
2017-08-18T06:49:14.234Z,6.77
2017-08-18T06:51:41.815Z,7.37
2017-08-18T06:54:09.318Z,6.90
2017-08-18T06:56:36.829Z,6.90
2017-08-18T06:59:04.566Z,7.07
2017-08-18T07:01:32.124Z,7.23
2017-08-18T07:03:59.654Z,6.83
2017-08-18T07:06:27.213Z,6.90
2017-08-18T07:08:54.783Z,6.83
2017-08-18T07:11:22.374Z,6.70
2017-08-18T07:13:49.948Z,6.10
2017-08-18T07:16:17.498Z,6.60
2017-08-18T07:18:45.053Z,5.80
2017-08-18T07:21:12.829Z,5.23
2017-08-18T07:23:40.358Z,5.43
2017-08-18T07:26:07.904Z,5.23
2017-08-18T07:28:35.440Z,4.63
2017-08-18T07:31:03.011Z,4.80
2017-08-18T07:33:30.562Z,5.00
2017-08-18T07:35:58.284Z,4.77
2017-08-18T07:38:26.788Z,4.97
2017-08-18T07:40:54.355Z,4.47
2017-08-18T07:43:22.110Z,4.60
2017-08-18T07:45:49.664Z,4.20
2017-08-18T07:48:17.248Z,4.13
2017-08-18T07:50:44.856Z,3.17
2017-08-18T07:53:12.390Z,3.30
2017-08-18T07:55:39.966Z,2.83
2017-08-18T07:58:07.541Z,3.10
2017-08-18T08:00:35.090Z,3.63
2017-08-18T08:03:02.655Z,3.07
2017-08-18T08:05:30.261Z,2.73
2017-08-18T08:07:57.852Z,2.30
2017-08-18T08:10:25.390Z,2.60
2017-08-18T08:12:53.082Z,2.00
2017-08-18T08:15:20.642Z,2.40
2017-08-18T08:17:48.206Z,2.70
2017-08-18T08:20:16.011Z,2.13
2017-08-18T08:22:43.973Z,2.00
2017-08-18T08:25:11.538Z,2.60
2017-08-18T08:27:39.297Z,2.60
2017-08-18T08:30:06.868Z,1.80
2017-08-18T08:32:34.388Z,2.20
2017-08-18T08:35:01.978Z,1.70
2017-08-18T08:37:29.496Z,2.20
2017-08-18T08:39:57.041Z,2.63
2017-08-18T08:42:24.618Z,2.60
2017-08-18T08:44:52.200Z,1.90
2017-08-18T08:47:19.771Z,2.07
2017-08-18T08:49:47.544Z,2.20
2017-08-18T08:52:15.033Z,3.00
2017-08-18T08:54:42.607Z,2.47
2017-08-18T08:57:10.204Z,2.30
2017-08-18T08:59:37.725Z,2.00
2017-08-18T09:02:05.287Z,2.20
2017-08-18T09:04:32.885Z,1.90
2017-08-18T09:07:00.446Z,1.80
2017-08-18T09:09:27.959Z,1.90
2017-08-18T09:11:55.837Z,1.60
2017-08-18T09:14:23.405Z,2.00
2017-08-18T09:16:50.952Z,1.90
2017-08-18T09:19:18.526Z,2.20
2017-08-18T09:21:46.086Z,2.13
2017-08-18T09:24:13.710Z,1.77
2017-08-18T09:26:41.430Z,1.93
2017-08-18T09:29:08.994Z,2.00
2017-08-18T09:31:36.570Z,2.17
2017-08-18T09:34:04.586Z,2.07
2017-08-18T09:36:32.174Z,2.10
2017-08-18T09:38:59.736Z,1.83
2017-08-18T09:41:27.557Z,2.77
2017-08-18T09:43:55.171Z,3.10
2017-08-18T09:46:23.492Z,2.80
2017-08-18T09:49:02.884Z,2.87
2017-08-18T09:51:42.133Z,2.83
2017-08-18T09:54:36.185Z,2.97
2017-08-18T09:57:15.434Z,2.27
2017-08-18T09:59:43.067Z,2.93
2017-08-18T10:02:10.619Z,2.53
2017-08-18T10:04:39.282Z,2.60
2017-08-18T10:07:10.722Z,2.50
2017-08-18T10:09:38.314Z,2.43
2017-08-18T10:12:05.889Z,2.30
2017-08-18T10:14:33.529Z,2.27
2017-08-18T10:17:01.068Z,3.13
2017-08-18T10:19:28.628Z,2.47
2017-08-18T10:21:56.188Z,2.87
2017-08-18T10:24:23.797Z,3.10
2017-08-18T10:26:51.350Z,2.40
2017-08-18T10:29:18.999Z,3.17
2017-08-18T10:31:46.525Z,2.60
2017-08-18T10:34:14.459Z,2.43
2017-08-18T10:36:42.062Z,2.70
2017-08-18T10:39:09.618Z,2.40
2017-08-18T10:41:37.263Z,2.40
2017-08-18T10:44:04.882Z,2.87
2017-08-18T10:46:32.463Z,3.13
2017-08-18T10:49:00.013Z,3.03
2017-08-18T10:51:27.957Z,2.73
2017-08-18T10:53:58.175Z,2.87
2017-08-18T10:56:26.163Z,3.00
2017-08-18T10:58:54.293Z,3.30
2017-08-18T11:01:25.969Z,2.87
2017-08-18T11:03:54.534Z,3.10
2017-08-18T11:06:22.983Z,3.10
2017-08-18T11:08:50.632Z,3.43
2017-08-18T11:11:18.407Z,4.03
2017-08-18T11:13:46.127Z,4.00
2017-08-18T11:16:14.956Z,4.30
2017-08-18T11:18:42.776Z,3.80
2017-08-18T11:21:10.741Z,4.37
2017-08-18T11:23:38.293Z,4.73
2017-08-18T11:26:05.877Z,4.47
2017-08-18T11:28:33.550Z,4.30
2017-08-18T11:31:01.201Z,5.27
2017-08-18T11:33:29.419Z,5.87
2017-08-18T11:35:57.456Z,6.23
2017-08-18T11:38:25.188Z,6.20
2017-08-18T11:40:53.615Z,7.20
2017-08-18T11:43:21.551Z,6.87
2017-08-18T11:45:49.607Z,7.80
2017-08-18T11:48:17.819Z,6.70
2017-08-18T11:50:45.906Z,7.07
2017-08-18T11:53:14.840Z,6.87
2017-08-18T11:55:43.642Z,6.60
2017-08-18T11:58:12.088Z,5.90
2017-08-18T12:00:40.795Z,5.40
2017-08-18T12:03:09.898Z,5.77
2017-08-18T12:05:38.662Z,5.60
2017-08-18T12:08:06.617Z,5.90
2017-08-18T12:10:34.575Z,6.37
2017-08-18T12:13:02.791Z,5.30
2017-08-18T12:15:31.099Z,5.73
2017-08-18T12:17:59.111Z,5.90
2017-08-18T12:20:26.936Z,5.53
2017-08-18T12:22:56.044Z,5.47
2017-08-18T12:25:23.876Z,5.47
2017-08-18T12:27:51.722Z,5.27
2017-08-18T12:30:19.632Z,5.47
2017-08-18T12:32:48.061Z,5.30
2017-08-18T12:35:16.083Z,4.70
2017-08-18T12:37:43.805Z,4.57
2017-08-18T12:40:11.409Z,4.93
2017-08-18T12:42:39.660Z,4.80
2017-08-18T12:45:08.032Z,4.30
2017-08-18T12:47:36.008Z,4.40
2017-08-18T12:50:04.157Z,4.47
2017-08-18T12:52:32.184Z,4.30
2017-08-18T12:55:00.171Z,5.03
2017-08-18T12:57:27.998Z,4.90
2017-08-18T12:59:55.786Z,5.20
2017-08-18T13:02:23.510Z,5.63
2017-08-18T13:04:51.803Z,4.63
2017-08-18T13:07:19.457Z,4.73
2017-08-18T13:09:47.091Z,4.73
2017-08-18T13:12:14.880Z,5.17
2017-08-18T13:14:43.050Z,4.13
2017-08-18T13:17:11.235Z,4.67
2017-08-18T13:19:38.881Z,4.37
2017-08-18T13:22:06.526Z,4.87
2017-08-18T13:24:34.481Z,5.00
2017-08-18T13:27:02.936Z,4.47
2017-08-18T13:29:30.795Z,4.70
2017-08-18T13:31:58.331Z,4.20
2017-08-18T13:34:26.175Z,4.17
2017-08-18T13:36:53.772Z,5.10
2017-08-18T13:39:25.571Z,4.90
2017-08-18T13:41:54.531Z,4.80
2017-08-18T13:44:22.679Z,4.90
2017-08-18T13:46:51.468Z,4.50
2017-08-18T13:49:20.351Z,4.20
2017-08-18T13:51:48.076Z,4.67
2017-08-18T13:54:16.041Z,4.23
2017-08-18T13:56:45.165Z,4.80
2017-08-18T13:59:13.571Z,4.90
2017-08-18T14:01:41.679Z,4.70
2017-08-18T14:04:10.021Z,4.83
2017-08-18T14:06:37.900Z,4.40
2017-08-18T14:09:05.741Z,4.17
2017-08-18T14:11:33.591Z,4.20
2017-08-18T14:14:01.324Z,4.50
2017-08-18T14:16:29.338Z,4.40
2017-08-18T14:18:57.471Z,4.80
2017-08-18T14:21:25.248Z,4.50
2017-08-18T14:23:52.864Z,4.53
2017-08-18T14:26:26.044Z,5.07
2017-08-18T14:28:53.635Z,5.00
2017-08-18T14:31:21.204Z,4.70
2017-08-18T14:33:48.842Z,5.37
2017-08-18T14:36:16.577Z,5.10
2017-08-18T14:38:44.238Z,5.20
2017-08-18T14:41:12.040Z,5.50
2017-08-18T14:43:39.825Z,6.10
2017-08-18T14:46:07.745Z,5.43
2017-08-18T14:48:35.650Z,6.00
2017-08-18T14:51:03.309Z,5.40
2017-08-18T14:53:30.892Z,6.23
2017-08-18T14:55:58.518Z,5.40
2017-08-18T14:58:26.115Z,6.00
2017-08-18T15:00:53.705Z,5.60
2017-08-18T15:03:21.289Z,5.50
2017-08-18T15:05:48.929Z,6.30
2017-08-18T15:08:16.465Z,5.87
2017-08-18T15:10:44.051Z,6.30
2017-08-18T15:13:11.639Z,6.87
2017-08-18T15:15:40.375Z,6.67
2017-08-18T15:18:08.034Z,7.23
2017-08-18T15:20:36.562Z,7.23
2017-08-18T15:23:04.368Z,6.57
2017-08-18T15:25:32.132Z,7.03
2017-08-18T15:27:59.718Z,7.33
2017-08-18T15:30:29.484Z,7.90
2017-08-18T15:32:58.643Z,7.13
2017-08-18T15:35:26.552Z,7.67
2017-08-18T15:37:55.716Z,7.27
2017-08-18T15:40:24.270Z,6.63
2017-08-18T15:42:52.222Z,7.77
2017-08-18T15:45:20.087Z,7.10
2017-08-18T15:47:49.702Z,7.53
2017-08-18T15:50:17.932Z,7.23
2017-08-18T15:52:47.423Z,7.47
2017-08-18T15:55:16.544Z,7.20
2017-08-18T15:57:46.130Z,7.17
2017-08-18T16:00:13.993Z,7.57
2017-08-18T16:02:42.829Z,7.77
2017-08-18T16:05:11.429Z,7.30
2017-08-18T16:07:40.277Z,7.50
2017-08-18T16:10:09.472Z,7.50
2017-08-18T16:12:38.414Z,7.60
2017-08-18T16:15:07.919Z,7.47
2017-08-18T16:17:36.495Z,7.70
2017-08-18T16:20:05.231Z,7.50
2017-08-18T16:22:33.975Z,8.00
2017-08-18T16:25:03.313Z,7.53
2017-08-18T16:27:32.446Z,7.40
2017-08-18T16:30:02.794Z,7.40
2017-08-18T16:32:31.454Z,7.77
2017-08-18T16:35:00.439Z,7.90
2017-08-18T16:37:29.016Z,7.23
2017-08-18T16:39:57.679Z,6.80
2017-08-18T16:42:25.707Z,7.50
2017-08-18T16:44:53.918Z,7.60
2017-08-18T16:47:23.236Z,7.90
2017-08-18T16:49:51.346Z,7.60
2017-08-18T16:52:19.399Z,8.07
2017-08-18T16:54:47.452Z,7.03
2017-08-18T16:57:15.699Z,7.67
2017-08-18T16:59:43.850Z,7.10
2017-08-18T17:02:16.017Z,8.30
2017-08-18T17:04:44.142Z,7.50
2017-08-18T17:07:12.252Z,8.07
2017-08-18T17:09:46.289Z,7.17
2017-08-18T17:12:20.287Z,7.23
2017-08-18T17:14:49.830Z,7.27
2017-08-18T17:17:18.732Z,6.63
2017-08-18T17:19:46.862Z,7.10
2017-08-18T17:22:15.596Z,7.27
2017-08-18T17:24:43.721Z,10.53
2017-08-18T17:27:12.275Z,12.53
2017-08-18T17:29:40.972Z,7.03
2017-08-18T17:32:09.753Z,7.00
2017-08-18T17:34:37.794Z,6.90
2017-08-18T17:37:09.555Z,8.50
2017-08-18T17:39:37.719Z,7.30
2017-08-18T17:42:07.177Z,7.27
2017-08-18T17:44:36.165Z,7.50
2017-08-18T17:47:03.975Z,7.90
2017-08-18T17:49:32.143Z,7.20
2017-08-18T17:52:01.167Z,7.83
2017-08-18T17:54:28.998Z,7.37
2017-08-18T17:56:57.090Z,9.00
2017-08-18T17:59:25.264Z,6.87
2017-08-18T18:01:53.249Z,7.80
2017-08-18T18:04:22.026Z,7.60
2017-08-18T18:06:53.584Z,8.27
2017-08-18T18:09:21.903Z,8.13
2017-08-18T18:11:53.654Z,7.50
2017-08-18T18:14:22.882Z,8.33
2017-08-18T18:16:55.779Z,7.53
2017-08-18T18:19:24.224Z,8.20
2017-08-18T18:21:52.302Z,7.80
2017-08-18T18:24:21.133Z,8.23
2017-08-18T18:26:50.523Z,9.10
2017-08-18T18:29:19.069Z,7.30
2017-08-18T18:31:49.750Z,8.93
2017-08-18T18:34:18.209Z,7.47
2017-08-18T18:36:46.167Z,7.50
2017-08-18T18:39:15.141Z,8.10
2017-08-18T18:41:43.622Z,7.50
2017-08-18T18:44:11.650Z,7.97
2017-08-18T18:46:40.965Z,8.00
2017-08-18T18:49:09.082Z,7.43
2017-08-18T18:51:37.077Z,7.50
2017-08-18T18:54:05.657Z,7.47
2017-08-18T18:56:33.502Z,7.70
2017-08-18T18:59:01.522Z,6.80
2017-08-18T19:01:29.278Z,7.03
2017-08-18T19:03:57.361Z,6.50
2017-08-18T19:06:25.233Z,6.97
2017-08-18T19:08:53.221Z,7.00
2017-08-18T19:11:21.003Z,6.77
2017-08-18T19:13:48.974Z,6.90
2017-08-18T19:16:16.942Z,6.80
2017-08-18T19:18:45.739Z,6.70
2017-08-18T19:21:13.825Z,7.60
2017-08-18T19:23:42.189Z,7.10
2017-08-18T19:26:10.961Z,7.57
2017-08-18T19:28:39.075Z,7.40
2017-08-18T19:31:07.075Z,8.17
2017-08-18T19:33:38.362Z,8.67
2017-08-18T19:36:06.231Z,8.37
2017-08-18T19:38:34.095Z,8.60
2017-08-18T19:41:02.222Z,8.90
2017-08-18T19:43:31.122Z,8.25
2017-08-18T19:45:59.609Z,8.63
2017-08-18T19:48:27.945Z,8.60
2017-08-18T19:50:56.323Z,8.00
2017-08-18T19:53:24.351Z,8.40
2017-08-18T19:55:52.474Z,7.80
2017-08-18T19:58:28.597Z,8.02
2017-08-18T20:00:56.779Z,8.70
2017-08-18T20:03:24.659Z,9.00
2017-08-18T20:05:53.646Z,9.65
2017-08-18T20:08:21.732Z,8.20
2017-08-18T20:10:51.071Z,8.60
2017-08-18T20:13:19.732Z,8.05
2017-08-18T20:15:47.882Z,10.05
2017-08-18T20:18:15.909Z,8.30
2017-08-18T20:20:44.089Z,9.63
2017-08-18T20:23:12.148Z,9.25
2017-08-18T20:25:40.370Z,9.95
2017-08-18T20:28:08.945Z,9.15
2017-08-18T20:30:37.274Z,8.50
2017-08-18T20:33:05.514Z,8.60
2017-08-18T20:35:33.577Z,8.57
2017-08-18T20:38:01.783Z,8.60
2017-08-18T20:40:31.469Z,9.20
2017-08-18T20:42:59.591Z,8.90
2017-08-18T20:45:27.379Z,7.25
2017-08-18T20:47:54.944Z,5.57
2017-08-18T20:50:22.476Z,3.50
2017-08-18T20:52:51.518Z,4.00
2017-08-18T21:06:42.826Z,4.40
2017-08-18T21:09:10.426Z,3.70
2017-08-18T21:11:38.005Z,2.80
2017-08-18T21:14:05.607Z,2.25
2017-08-18T21:16:33.127Z,1.80
2017-08-18T21:19:00.677Z,2.37
2017-08-18T21:21:28.443Z,2.65
2017-08-18T21:23:56.633Z,1.92
2017-08-18T21:26:24.220Z,2.30
2017-08-18T21:28:51.826Z,2.00
2017-08-18T21:31:19.373Z,1.75
2017-08-18T21:33:46.953Z,2.33
2017-08-18T21:36:14.657Z,1.80
2017-08-18T21:38:42.202Z,2.47
2017-08-18T21:41:09.741Z,1.90
2017-08-18T21:43:37.420Z,2.37
2017-08-18T21:46:04.993Z,2.20
2017-08-18T21:48:32.558Z,2.60
2017-08-18T21:51:00.088Z,1.83
2017-08-18T21:53:27.631Z,2.28
2017-08-18T21:55:55.215Z,1.83
2017-08-18T21:58:22.777Z,2.05
2017-08-18T22:00:50.345Z,2.10
2017-08-18T22:03:17.867Z,2.15
2017-08-18T22:05:45.563Z,2.28
2017-08-18T22:08:13.844Z,2.47
2017-08-18T22:10:41.411Z,2.75
2017-08-18T22:13:08.969Z,2.12
2017-08-18T22:15:36.531Z,2.00
2017-08-18T22:18:04.122Z,2.70
2017-08-18T22:20:31.804Z,2.55
2017-08-18T22:22:59.396Z,2.70
2017-08-18T22:25:27.558Z,3.20
2017-08-18T22:27:55.117Z,3.40
2017-08-18T22:30:22.676Z,3.30
2017-08-18T22:32:50.269Z,4.10
2017-08-18T22:35:17.845Z,3.47
2017-08-18T22:37:46.071Z,3.53
2017-08-18T22:40:13.639Z,3.37
2017-08-18T22:42:41.225Z,3.60
2017-08-18T22:45:08.804Z,3.58
2017-08-18T22:47:36.400Z,3.10
2017-08-18T22:50:03.975Z,3.45
2017-08-18T22:52:31.525Z,3.67
2017-08-18T22:54:59.119Z,3.25
2017-08-18T22:57:26.732Z,3.25
2017-08-18T22:59:54.282Z,2.87
2017-08-18T23:02:21.856Z,2.95
2017-08-18T23:04:49.604Z,3.05
2017-08-18T23:07:17.153Z,2.90
2017-08-18T23:09:44.714Z,2.67
2017-08-18T23:12:12.406Z,3.12
2017-08-18T23:14:39.988Z,2.75
2017-08-18T23:17:08.650Z,3.03
2017-08-18T23:19:36.264Z,2.83
2017-08-18T23:22:03.806Z,2.90
2017-08-18T23:24:31.343Z,2.87
2017-08-18T23:26:58.920Z,2.80
2017-08-18T23:29:26.421Z,2.83
2017-08-18T23:31:53.995Z,2.60
2017-08-18T23:34:21.632Z,2.97
2017-08-18T23:36:49.193Z,2.70
2017-08-18T23:39:16.778Z,2.53
2017-08-18T23:41:44.499Z,3.12
2017-08-18T23:44:12.049Z,2.92
2017-08-18T23:46:39.595Z,3.45
2017-08-18T23:49:07.161Z,3.12
2017-08-18T23:51:34.659Z,2.87
2017-08-18T23:54:02.180Z,2.60
2017-08-18T23:56:29.758Z,2.78
2017-08-18T23:58:57.299Z,2.65
